Аэропорт: Нижневартовск. Нижневартовск

ICAO: USNN

METAR:
2018/09/23 11:00
USNN 231100Z VRB01MPS CAVOK 16/07 Q1010 R03/0///65 NOSIG RMK QFE753
METAR:
2018/09/23 09:24
TAF USNN 230800Z 2309/2409 03003MPS 9999 SCT020 
      TEMPO 2309/2315 VRB01MPS